createdAt,value
2023-03-12T00:00:49.610Z,32.87
2023-03-12T00:10:51.246Z,32.70
2023-03-12T00:20:54.308Z,35.13
2023-03-12T00:30:57.230Z,28.03
2023-03-12T00:40:58.864Z,29.57
2023-03-12T00:51:00.400Z,25.50
2023-03-12T01:01:02.208Z,27.33
2023-03-12T01:11:04.146Z,27.00
2023-03-12T01:21:05.987Z,28.67
2023-03-12T01:31:09.476Z,27.67
2023-03-12T01:41:11.147Z,33.07
2023-03-12T01:51:14.963Z,26.48
2023-03-12T02:01:18.616Z,26.23
2023-03-12T02:11:20.165Z,21.00
2023-03-12T02:21:28.525Z,26.70
2023-03-12T02:31:37.198Z,21.80
2023-03-12T02:41:44.601Z,25.67
2023-03-12T02:51:47.442Z,25.40
2023-03-12T03:01:56.012Z,25.23
2023-03-12T03:11:57.511Z,19.73
2023-03-12T03:21:59.158Z,20.33
2023-03-12T03:32:00.690Z,18.20
2023-03-12T03:42:02.566Z,17.90
2023-03-12T03:52:04.278Z,17.43
2023-03-12T04:02:07.006Z,17.70
2023-03-12T04:12:08.626Z,19.43
2023-03-12T04:22:10.575Z,18.13
2023-03-12T04:32:12.141Z,18.77
2023-03-12T04:42:13.972Z,17.63
2023-03-12T04:52:15.557Z,23.43
2023-03-12T05:02:17.074Z,22.77
2023-03-12T05:12:18.587Z,21.13
2023-03-12T05:22:20.140Z,18.07
2023-03-12T05:32:21.764Z,21.57
2023-03-12T05:42:24.859Z,19.97
2023-03-12T05:52:26.401Z,14.77
2023-03-12T06:02:27.926Z,12.95
2023-03-12T06:12:29.432Z,12.13
2023-03-12T06:22:31.104Z,16.43
2023-03-12T06:32:32.769Z,13.20
2023-03-12T06:42:34.360Z,9.97
2023-03-12T06:52:35.922Z,9.65
2023-03-12T07:02:37.554Z,8.37
2023-03-12T07:12:39.111Z,9.10
2023-03-12T07:22:40.805Z,10.20
2023-03-12T07:32:42.390Z,10.80
2023-03-12T07:42:43.941Z,9.95
2023-03-12T07:52:46.880Z,9.13
2023-03-12T08:02:48.572Z,11.77
2023-03-12T08:12:50.217Z,12.03
2023-03-12T08:22:51.955Z,12.20
2023-03-12T08:32:53.536Z,11.15
2023-03-12T08:42:55.073Z,7.43
2023-03-12T08:52:56.840Z,8.47
2023-03-12T09:02:58.386Z,9.47
2023-03-12T09:13:02.082Z,9.70
2023-03-12T09:23:03.611Z,10.05
2023-03-12T09:33:05.182Z,8.13
2023-03-12T09:43:13.873Z,10.00
2023-03-12T09:53:31.174Z,8.17
2023-03-12T10:03:38.827Z,12.63
2023-03-12T10:13:58.492Z,9.65
2023-03-12T10:24:28.891Z,9.83
2023-03-12T10:34:56.248Z,10.27
2023-03-12T10:45:06.872Z,17.10
2023-03-12T10:55:29.669Z,10.37
2023-03-12T11:05:47.486Z,11.82
2023-03-12T11:15:49.365Z,11.53
2023-03-12T11:25:53.895Z,13.77
2023-03-12T11:36:23.921Z,11.70
2023-03-12T11:46:34.821Z,11.67
2023-03-12T11:56:41.016Z,10.52
2023-03-12T12:07:21.053Z,13.40
2023-03-12T12:17:30.066Z,11.77
2023-03-12T12:27:38.830Z,11.67
2023-03-12T12:37:43.134Z,13.37
2023-03-12T12:48:06.428Z,11.55
2023-03-12T12:58:15.249Z,8.27
2023-03-12T13:08:41.683Z,10.83
2023-03-12T13:19:15.713Z,12.97
2023-03-12T13:29:37.154Z,10.53
2023-03-12T13:39:38.804Z,11.07
2023-03-12T13:49:46.507Z,11.97
2023-03-12T13:59:50.315Z,10.90
2023-03-12T14:10:21.244Z,13.50
2023-03-12T14:20:23.727Z,11.40
2023-03-12T14:31:04.071Z,10.95
2023-03-12T14:41:15.648Z,9.43
2023-03-12T14:51:29.902Z,11.77
2023-03-12T15:01:33.191Z,8.33
2023-03-12T15:11:37.182Z,11.40
2023-03-12T15:21:39.439Z,8.95
2023-03-12T15:31:46.676Z,12.07
2023-03-12T15:41:49.268Z,12.47
2023-03-12T15:52:02.724Z,9.93
2023-03-12T16:02:04.472Z,9.70
2023-03-12T16:12:06.426Z,14.70
2023-03-12T16:22:08.024Z,10.27
2023-03-12T16:32:14.792Z,10.43
2023-03-12T16:42:18.344Z,13.90
2023-03-12T16:52:23.272Z,11.17
2023-03-12T17:02:25.086Z,11.07
2023-03-12T17:12:38.675Z,9.63
2023-03-12T17:22:40.840Z,9.40
2023-03-12T17:32:42.481Z,16.30
2023-03-12T17:42:44.234Z,14.57
2023-03-12T17:52:46.116Z,9.00
2023-03-12T18:02:47.869Z,12.40
2023-03-12T18:12:49.508Z,6.87
2023-03-12T18:22:51.223Z,10.67
2023-03-12T18:32:52.961Z,12.07
2023-03-12T18:42:57.651Z,7.68
2023-03-12T18:52:59.254Z,15.07
2023-03-12T19:03:00.959Z,7.73
2023-03-12T19:13:02.655Z,9.13
2023-03-12T19:23:04.379Z,6.77
2023-03-12T19:33:06.323Z,8.80
2023-03-12T19:43:08.100Z,9.33
2023-03-12T19:53:09.732Z,12.27
2023-03-12T20:03:11.393Z,9.23
2023-03-12T20:13:13.769Z,11.87
2023-03-12T20:23:15.341Z,8.98
2023-03-12T20:33:17.120Z,11.80
2023-03-12T20:43:18.719Z,9.17
2023-03-12T20:53:20.285Z,10.53
2023-03-12T21:03:21.857Z,9.27
2023-03-12T21:13:23.545Z,12.25
2023-03-12T21:23:25.215Z,10.07
2023-03-12T21:33:26.973Z,10.80
2023-03-12T21:43:29.322Z,11.63
2023-03-12T21:53:31.020Z,11.13
2023-03-12T22:03:33.114Z,8.45
2023-03-12T22:13:35.195Z,10.90
2023-03-12T22:23:37.169Z,8.87
2023-03-12T22:33:38.780Z,13.37
2023-03-12T22:43:40.524Z,11.93
2023-03-12T22:53:42.107Z,11.95
2023-03-12T23:03:45.122Z,12.73
2023-03-12T23:13:47.254Z,13.10
2023-03-12T23:23:50.090Z,11.97
2023-03-12T23:33:51.714Z,13.30
2023-03-12T23:43:53.617Z,10.55
2023-03-12T23:53:58.200Z,10.83
